Time;durP1;ratioP1;P1;durP2;ratioP2;P2;SDS_P1;SDS_P2;PMS_P1;PMS_P2;Temp;Humidity;BMP_temperature;BMP_pressure;BME280_temperature;BME280_humidity;BME280_pressure;Samples;Min_cycle;Max_cycle;Signal;HPM_P1;HPM_P2
2021/06/21 00:00:22;;;;;;;8.20;3.60;;;20.70;99.90;;;;;;5049967;28;20066;-64
2021/06/21 00:02:48;;;;;;;7.72;3.08;;;20.60;99.90;;;;;;5061121;28;20033;-63
2021/06/21 00:05:15;;;;;;;6.88;3.20;;;20.60;99.90;;;;;;5060322;28;20027;-63
2021/06/21 00:07:41;;;;;;;5.18;3.38;;;20.60;99.90;;;;;;5055652;28;20126;-63
2021/06/21 00:10:08;;;;;;;9.43;3.28;;;20.60;99.90;;;;;;5050228;28;20025;-64
2021/06/21 00:12:34;;;;;;;6.35;3.35;;;20.60;99.90;;;;;;5049582;28;20041;-63
2021/06/21 00:15:01;;;;;;;4.88;3.38;;;20.60;99.90;;;;;;5061837;28;20503;-63
2021/06/21 00:17:27;;;;;;;5.80;3.13;;;20.50;99.90;;;;;;5050478;28;20021;-63
2021/06/21 00:19:52;;;;;;;7.32;3.60;;;20.50;99.90;;;;;;5034371;28;20065;-62
2021/06/21 00:22:19;;;;;;;5.20;3.20;;;20.50;99.90;;;;;;5058362;28;20036;-62
2021/06/21 00:24:45;;;;;;;6.90;3.50;;;20.50;99.90;;;;;;5042363;28;20028;-63
2021/06/21 00:27:11;;;;;;;4.82;3.40;;;20.50;99.90;;;;;;5059151;28;20390;-62
2021/06/21 00:29:38;;;;;;;3.80;3.22;;;20.40;99.90;;;;;;5058084;28;20098;-63
2021/06/21 00:32:04;;;;;;;5.22;3.72;;;20.40;99.90;;;;;;5057574;28;20066;-62
2021/06/21 00:34:30;;;;;;;6.53;3.45;;;20.40;99.90;;;;;;5055349;28;20112;-63
2021/06/21 00:36:56;;;;;;;8.43;3.95;;;20.40;99.90;;;;;;5057425;28;20032;-63
2021/06/21 00:39:22;;;;;;;5.28;3.55;;;20.40;99.90;;;;;;5048307;28;20033;-62
2021/06/21 00:41:48;;;;;;;3.97;3.55;;;20.30;99.90;;;;;;5051126;28;20064;-63
2021/06/21 00:44:14;;;;;;;6.97;3.92;;;20.30;99.90;;;;;;5058612;28;20078;-63
2021/06/21 00:46:40;;;;;;;7.10;4.00;;;20.30;99.90;;;;;;5058520;28;20031;-63
2021/06/21 00:49:05;;;;;;;9.95;3.75;;;20.30;99.90;;;;;;5061251;28;20036;-62
2021/06/21 00:51:32;;;;;;;8.70;4.50;;;20.30;99.90;;;;;;5054423;28;20028;-64
2021/06/21 00:53:58;;;;;;;5.78;3.58;;;20.30;99.90;;;;;;5057283;28;20378;-63
2021/06/21 00:56:24;;;;;;;10.00;3.47;;;20.40;99.90;;;;;;5061366;28;20035;-62
2021/06/21 00:58:55;;;;;;;5.15;3.92;;;20.40;99.90;;;;;;5048871;28;20040;-64
2021/06/21 01:01:20;;;;;;;10.23;5.15;;;20.40;99.90;;;;;;5043881;28;20029;-63
2021/06/21 01:03:46;;;;;;;9.30;3.83;;;20.40;99.90;;;;;;5048214;28;20031;-63
2021/06/21 01:06:11;;;;;;;9.10;4.03;;;20.30;99.90;;;;;;5052732;28;20099;-64
2021/06/21 01:08:37;;;;;;;8.88;3.97;;;20.30;99.90;;;;;;5047784;28;20032;-63
2021/06/21 01:11:03;;;;;;;7.38;4.07;;;20.30;99.90;;;;;;5050143;28;20030;-63
2021/06/21 01:14:00;;;;;;;8.23;4.13;;;20.20;99.90;;;;;;5048788;28;20630;-63
2021/06/21 01:16:42;;;;;;;9.80;5.07;;;20.20;99.90;;;;;;5046707;28;21928;-58
2021/06/21 01:19:43;;;;;;;8.15;4.90;;;20.20;99.90;;;;;;5047273;28;20119;-63
2021/06/21 01:22:28;;;;;;;7.75;4.20;;;20.20;99.90;;;;;;4992924;28;20045;-63
2021/06/21 01:25:02;;;;;;;8.63;4.57;;;20.20;99.90;;;;;;5051685;28;20021;-62
2021/06/21 01:27:46;;;;;;;8.25;4.53;;;20.20;99.90;;;;;;5050615;28;20017;-63
2021/06/21 01:30:15;;;;;;;8.75;5.15;;;20.20;99.90;;;;;;5048159;28;20045;-64
2021/06/21 01:32:58;;;;;;;10.35;5.15;;;20.20;99.90;;;;;;5043034;28;20136;-62
2021/06/21 01:35:34;;;;;;;15.63;5.05;;;20.20;99.90;;;;;;5046029;28;20020;-63
2021/06/21 01:38:08;;;;;;;11.98;4.88;;;20.20;99.90;;;;;;5046497;28;20082;-62
2021/06/21 01:40:45;;;;;;;7.72;4.93;;;20.20;99.90;;;;;;5048843;28;20025;-63
2021/06/21 01:43:14;;;;;;;11.95;5.80;;;20.20;99.90;;;;;;5046982;28;20095;-62
2021/06/21 01:45:41;;;;;;;8.13;6.03;;;20.20;99.90;;;;;;5049380;28;20094;-63
2021/06/21 01:48:09;;;;;;;10.18;5.25;;;20.20;99.90;;;;;;5049439;28;20032;-64
2021/06/21 01:50:36;;;;;;;7.80;5.63;;;20.20;99.90;;;;;;5048747;28;20033;-63
2021/06/21 01:53:05;;;;;;;14.73;5.90;;;20.30;99.90;;;;;;5056138;28;20032;-63
2021/06/21 01:55:33;;;;;;;10.07;4.95;;;20.20;99.90;;;;;;5050902;28;20113;-62
2021/06/21 01:58:00;;;;;;;16.75;5.80;;;20.20;99.90;;;;;;5052258;28;20029;-64
2021/06/21 02:00:27;;;;;;;13.75;5.65;;;20.20;99.90;;;;;;5046710;28;20032;-63
2021/06/21 02:02:55;;;;;;;11.57;5.85;;;20.20;99.90;;;;;;5050971;28;20524;-63
2021/06/21 02:05:21;;;;;;;13.30;6.07;;;20.10;99.90;;;;;;5047101;28;20478;-63
2021/06/21 02:07:49;;;;;;;13.25;5.25;;;20.10;99.90;;;;;;5050125;28;20029;-62
2021/06/21 02:10:16;;;;;;;11.27;5.80;;;20.10;99.90;;;;;;5040767;28;20032;-62
2021/06/21 02:12:42;;;;;;;13.68;5.30;;;20.10;99.90;;;;;;5048819;28;20036;-62
2021/06/21 02:15:09;;;;;;;14.38;5.30;;;20.10;99.90;;;;;;5042953;28;20036;-63
2021/06/21 02:17:36;;;;;;;12.10;5.50;;;20.10;99.90;;;;;;5047319;28;20036;-64
2021/06/21 02:20:05;;;;;;;19.05;5.78;;;20.10;99.90;;;;;;5049148;28;20032;-62
2021/06/21 02:22:31;;;;;;;18.70;6.57;;;20.00;99.90;;;;;;5048060;28;20030;-63
2021/06/21 02:24:59;;;;;;;14.88;5.53;;;20.00;99.90;;;;;;5048728;28;20032;-63
2021/06/21 02:27:25;;;;;;;17.08;5.20;;;20.00;99.90;;;;;;5049686;28;20033;-62
2021/06/21 02:29:53;;;;;;;20.80;5.90;;;20.00;99.90;;;;;;5047802;28;20029;-63
2021/06/21 02:32:22;;;;;;;20.15;5.30;;;20.10;99.90;;;;;;5049822;28;20387;-63
2021/06/21 02:34:48;;;;;;;20.42;5.28;;;20.10;99.90;;;;;;5051956;28;20170;-63
2021/06/21 02:37:15;;;;;;;17.90;6.50;;;20.10;99.90;;;;;;5055588;28;20107;-63
2021/06/21 02:39:41;;;;;;;12.63;4.53;;;20.10;99.90;;;;;;5051122;28;20033;-63
2021/06/21 02:42:07;;;;;;;7.10;4.18;;;20.10;99.90;;;;;;5051329;28;20021;-63
2021/06/21 02:44:34;;;;;;;14.32;4.60;;;20.00;99.90;;;;;;5050195;28;20032;-62
2021/06/21 02:47:01;;;;;;;16.25;5.68;;;20.00;99.90;;;;;;5042499;28;20037;-61
2021/06/21 02:49:27;;;;;;;8.02;3.28;;;20.00;99.90;;;;;;5050317;28;20058;-63
2021/06/21 02:52:07;;;;;;;7.68;3.97;;;20.00;99.90;;;;;;5046895;28;20537;-63
2021/06/21 02:54:48;;;;;;;9.63;3.72;;;20.00;99.90;;;;;;5047890;28;20020;-63
2021/06/21 02:57:27;;;;;;;13.85;3.58;;;20.00;99.90;;;;;;5058734;28;20027;-64
2021/06/21 02:59:53;;;;;;;8.63;3.22;;;20.00;99.90;;;;;;5045436;28;20037;-63
2021/06/21 03:02:20;;;;;;;13.50;4.13;;;19.90;99.90;;;;;;5050180;28;20041;-63
2021/06/21 03:04:46;;;;;;;7.72;3.28;;;20.00;99.90;;;;;;5049517;28;20029;-63
2021/06/21 03:07:16;;;;;;;9.63;3.40;;;19.90;99.90;;;;;;5047327;28;20046;-64
2021/06/21 03:09:44;;;;;;;9.20;3.35;;;19.90;99.90;;;;;;5044832;28;20044;-61
2021/06/21 03:12:11;;;;;;;9.18;3.45;;;19.90;99.90;;;;;;5049146;28;20029;-63
2021/06/21 03:14:43;;;;;;;14.48;3.42;;;19.90;99.90;;;;;;5045685;28;20025;-63
2021/06/21 03:17:10;;;;;;;11.95;3.70;;;19.90;99.90;;;;;;5050090;28;20033;-64
2021/06/21 03:19:37;;;;;;;11.75;3.28;;;19.90;99.90;;;;;;5057369;28;20032;-63
2021/06/21 03:22:03;;;;;;;8.75;3.30;;;19.80;99.90;;;;;;5053597;28;20052;-63
2021/06/21 03:24:29;;;;;;;8.43;3.47;;;19.80;99.90;;;;;;5058424;28;20242;-63
2021/06/21 03:26:54;;;;;;;8.38;3.10;;;19.70;99.90;;;;;;5054809;28;20640;-59
2021/06/21 03:29:22;;;;;;;10.45;2.70;;;19.70;99.90;;;;;;5059361;28;20021;-63
2021/06/21 03:31:50;;;;;;;16.73;3.92;;;19.60;99.90;;;;;;5053187;28;20028;-63
2021/06/21 03:34:17;;;;;;;6.65;2.88;;;19.60;99.90;;;;;;5043499;28;20465;-63
2021/06/21 03:36:44;;;;;;;19.98;3.65;;;19.60;99.90;;;;;;5048984;28;20432;-64
2021/06/21 03:39:09;;;;;;;9.20;2.92;;;19.50;99.90;;;;;;5044919;28;20025;-63
2021/06/21 03:41:35;;;;;;;14.05;3.25;;;19.50;99.90;;;;;;5049074;28;20075;-64
2021/06/21 03:44:01;;;;;;;11.93;3.03;;;19.50;99.90;;;;;;5050025;28;20032;-64
2021/06/21 03:46:28;;;;;;;13.15;2.78;;;19.50;99.90;;;;;;5045556;28;20031;-63
2021/06/21 03:48:53;;;;;;;9.38;2.42;;;19.40;99.90;;;;;;5052644;28;20033;-61
2021/06/21 03:51:19;;;;;;;11.02;2.45;;;19.50;99.90;;;;;;5053933;28;20039;-61
2021/06/21 03:53:45;;;;;;;13.48;2.85;;;19.50;99.90;;;;;;5047546;28;20070;-63
2021/06/21 03:56:11;;;;;;;14.48;3.10;;;19.50;99.90;;;;;;5046105;28;20082;-62
2021/06/21 03:58:37;;;;;;;8.55;2.60;;;19.50;99.90;;;;;;5047112;28;20042;-63
2021/06/21 04:01:03;;;;;;;8.80;3.08;;;19.50;99.90;;;;;;5051211;28;20032;-63
2021/06/21 04:03:29;;;;;;;10.65;4.15;;;19.60;99.90;;;;;;5047109;28;20487;-63
2021/06/21 04:05:54;;;;;;;17.45;3.70;;;19.60;99.90;;;;;;5048298;28;20024;-63
2021/06/21 04:08:20;;;;;;;9.95;3.42;;;19.70;99.90;;;;;;5042243;28;20036;-62
2021/06/21 04:10:48;;;;;;;15.82;4.18;;;19.70;99.90;;;;;;5034815;28;20040;-62
2021/06/21 04:13:15;;;;;;;11.30;3.45;;;19.80;99.90;;;;;;5054728;28;20031;-63
2021/06/21 04:15:42;;;;;;;16.25;4.70;;;19.80;99.90;;;;;;5054808;28;20021;-63
2021/06/21 04:18:11;;;;;;;12.73;3.50;;;19.80;99.90;;;;;;5046161;28;20049;-63
2021/06/21 04:20:38;;;;;;;15.52;4.10;;;19.80;99.90;;;;;;5029357;28;20041;-63
2021/06/21 04:23:06;;;;;;;15.63;3.70;;;19.80;99.90;;;;;;5044309;28;20106;-61
2021/06/21 04:25:32;;;;;;;8.80;3.50;;;19.80;99.90;;;;;;5041856;28;20059;-63
2021/06/21 04:27:58;;;;;;;15.00;4.72;;;19.80;99.90;;;;;;5048388;28;20121;-62
2021/06/21 04:30:24;;;;;;;13.75;3.28;;;19.80;99.90;;;;;;5045048;28;20478;-63
2021/06/21 04:32:52;;;;;;;14.82;3.70;;;19.80;99.90;;;;;;5043986;28;20174;-63
2021/06/21 04:35:19;;;;;;;19.40;3.80;;;19.90;99.90;;;;;;5047877;28;20770;-62
2021/06/21 04:37:45;;;;;;;16.33;4.32;;;19.90;99.90;;;;;;5043706;28;20048;-63
2021/06/21 04:40:14;;;;;;;18.85;4.32;;;19.90;99.90;;;;;;5046565;28;20025;-63
2021/06/21 04:42:41;;;;;;;12.75;3.75;;;20.00;99.90;;;;;;5046179;28;20120;-63
2021/06/21 04:45:08;;;;;;;10.27;3.53;;;20.00;99.90;;;;;;5046241;28;20040;-64
2021/06/21 04:47:34;;;;;;;12.63;3.75;;;20.10;99.90;;;;;;5042930;28;20097;-63
2021/06/21 04:50:04;;;;;;;13.13;3.38;;;20.30;99.90;;;;;;5042329;28;20119;-63
2021/06/21 04:52:33;;;;;;;18.38;4.15;;;20.50;99.90;;;;;;5044597;28;20036;-63
2021/06/21 04:55:02;;;;;;;11.05;3.15;;;20.60;99.90;;;;;;5052375;28;20063;-64
2021/06/21 04:57:29;;;;;;;14.32;3.35;;;20.60;99.90;;;;;;5047945;28;20128;-63
2021/06/21 04:59:55;;;;;;;20.23;3.80;;;20.50;99.90;;;;;;5044405;28;20680;-62
2021/06/21 05:02:21;;;;;;;18.30;3.97;;;20.40;99.90;;;;;;5037372;28;20055;-63
2021/06/21 05:04:47;;;;;;;13.05;3.17;;;20.30;99.90;;;;;;5043386;28;20037;-63
2021/06/21 05:07:12;;;;;;;10.38;2.85;;;20.30;99.90;;;;;;5043749;28;20032;-63
2021/06/21 05:09:38;;;;;;;12.23;2.97;;;20.30;99.90;;;;;;5039613;28;20033;-63
2021/06/21 05:12:04;;;;;;;12.13;3.13;;;20.30;99.90;;;;;;5047282;28;20026;-63
2021/06/21 05:14:29;;;;;;;12.30;2.60;;;20.30;99.90;;;;;;5048890;28;20552;-63
2021/06/21 05:16:55;;;;;;;18.20;5.00;;;20.50;99.90;;;;;;5042264;28;20029;-62
2021/06/21 05:19:21;;;;;;;16.45;3.90;;;20.50;99.90;;;;;;5042313;28;20029;-64
2021/06/21 05:21:47;;;;;;;14.55;3.25;;;20.50;99.90;;;;;;5046224;28;20040;-64
2021/06/21 05:24:12;;;;;;;6.70;2.75;;;20.40;99.90;;;;;;5046994;28;20108;-64
2021/06/21 05:26:38;;;;;;;13.20;3.72;;;20.30;99.90;;;;;;5044960;28;20060;-62
2021/06/21 05:29:03;;;;;;;15.70;3.67;;;20.30;99.90;;;;;;5042586;28;20048;-63
2021/06/21 05:31:29;;;;;;;13.25;3.10;;;20.30;99.90;;;;;;5045012;28;20031;-63
2021/06/21 05:33:55;;;;;;;11.23;2.78;;;20.40;99.90;;;;;;5027050;28;20096;-64
2021/06/21 05:36:20;;;;;;;9.32;2.75;;;20.60;99.90;;;;;;5048580;28;20025;-63
2021/06/21 05:38:46;;;;;;;10.05;3.33;;;21.20;99.90;;;;;;5046591;28;20087;-63
2021/06/21 05:41:11;;;;;;;12.48;2.42;;;21.90;99.90;;;;;;5046888;28;20067;-64
2021/06/21 05:43:37;;;;;;;9.55;2.53;;;22.40;99.90;;;;;;5048103;28;20510;-64
2021/06/21 05:46:03;;;;;;;12.18;4.50;;;22.60;99.90;;;;;;5048451;28;20032;-62
2021/06/21 05:48:29;;;;;;;18.23;3.05;;;22.70;99.90;;;;;;5041276;28;20029;-62
2021/06/21 05:50:55;;;;;;;6.10;2.63;;;22.30;99.90;;;;;;5046850;28;20099;-62
2021/06/21 05:53:21;;;;;;;10.82;2.35;;;22.30;99.90;;;;;;5047196;28;20043;-64
2021/06/21 05:55:46;;;;;;;12.35;2.53;;;22.10;99.90;;;;;;5041731;28;20033;-64
2021/06/21 05:58:12;;;;;;;19.88;3.58;;;22.00;99.90;;;;;;5029175;28;20163;-63
2021/06/21 06:00:37;;;;;;;8.68;2.58;;;21.80;99.90;;;;;;5048538;28;20040;-63
2021/06/21 06:03:03;;;;;;;16.73;3.90;;;21.50;99.90;;;;;;5047277;28;20083;-62
2021/06/21 06:05:29;;;;;;;9.95;2.47;;;21.40;99.90;;;;;;5047751;28;20040;-63
2021/06/21 06:07:55;;;;;;;17.80;3.83;;;21.30;99.90;;;;;;5026180;28;20190;-62
2021/06/21 06:10:21;;;;;;;8.52;2.72;;;21.10;99.90;;;;;;5045240;28;20021;-63
2021/06/21 06:12:47;;;;;;;9.13;2.58;;;20.90;99.90;;;;;;5045393;28;20028;-64
2021/06/21 06:15:15;;;;;;;10.93;2.60;;;20.70;99.90;;;;;;5047797;28;20032;-63
2021/06/21 06:17:41;;;;;;;10.68;3.45;;;20.60;99.90;;;;;;5027261;28;20029;-61
2021/06/21 06:20:08;;;;;;;16.23;3.47;;;20.30;99.90;;;;;;5031173;28;20495;-63
2021/06/21 06:22:33;;;;;;;11.20;3.22;;;20.20;99.90;;;;;;5045524;28;20114;-63
2021/06/21 06:24:59;;;;;;;9.52;3.15;;;20.10;99.90;;;;;;5048776;28;20067;-63
2021/06/21 06:27:25;;;;;;;10.38;3.45;;;20.10;99.90;;;;;;5050321;28;20385;-63
2021/06/21 06:29:51;;;;;;;12.05;4.10;;;19.90;99.90;;;;;;5047745;28;20468;-64
2021/06/21 06:32:16;;;;;;;17.98;4.78;;;19.90;99.90;;;;;;5045533;28;20133;-63
2021/06/21 06:34:42;;;;;;;11.55;3.47;;;20.00;99.90;;;;;;5042721;28;20055;-63
2021/06/21 06:37:10;;;;;;;8.43;3.58;;;20.00;99.90;;;;;;5045213;28;20017;-64
2021/06/21 06:39:35;;;;;;;13.45;4.10;;;19.90;99.90;;;;;;5046156;28;20104;-63
2021/06/21 06:42:01;;;;;;;8.57;3.20;;;19.80;99.90;;;;;;5042568;28;20113;-63
2021/06/21 06:44:27;;;;;;;11.48;3.88;;;19.80;99.90;;;;;;5045785;28;20036;-63
2021/06/21 06:46:52;;;;;;;13.65;3.42;;;19.80;99.90;;;;;;5047879;28;20453;-64
2021/06/21 06:49:18;;;;;;;10.93;2.95;;;19.70;99.90;;;;;;5049914;28;20274;-63
2021/06/21 06:51:46;;;;;;;12.60;3.30;;;19.70;99.90;;;;;;5047994;28;20032;-63
2021/06/21 06:56:58;;;;;;;6.68;2.80;;;20.20;99.90;;;;;;5039025;28;20056;-64
2021/06/21 06:59:25;;;;;;;7.57;2.47;;;20.60;99.90;;;;;;5047862;28;20033;-63
2021/06/21 07:01:51;;;;;;;7.82;2.22;;;21.00;99.90;;;;;;5050366;28;20099;-64
2021/06/21 07:04:16;;;;;;;6.40;2.35;;;21.60;99.90;;;;;;5048026;28;20474;-64
2021/06/21 07:06:42;;;;;;;5.28;1.90;;;22.30;99.90;;;;;;5048775;28;20037;-64
2021/06/21 07:09:08;;;;;;;6.57;2.00;;;22.60;99.90;;;;;;5032850;28;20049;-63
2021/06/21 07:11:37;;;;;;;5.07;1.70;;;22.50;99.90;;;;;;5047804;28;20036;-62
2021/06/21 07:14:04;;;;;;;7.25;1.88;;;22.80;99.90;;;;;;5047644;28;20033;-63
2021/06/21 07:16:30;;;;;;;8.68;1.88;;;23.70;99.90;;;;;;5047785;28;20060;-63
2021/06/21 07:18:55;;;;;;;4.85;1.52;;;24.60;99.90;;;;;;5048620;28;20436;-63
2021/06/21 07:21:21;;;;;;;9.68;1.60;;;25.00;99.90;;;;;;5046962;28;20021;-62
2021/06/21 07:23:47;;;;;;;3.65;1.65;;;25.10;99.90;;;;;;5046376;28;20056;-64
2021/06/21 07:26:12;;;;;;;4.47;1.50;;;25.40;99.90;;;;;;5046074;28;20478;-65
2021/06/21 07:28:38;;;;;;;6.30;2.33;;;25.20;99.90;;;;;;5046796;28;20473;-62
2021/06/21 07:31:04;;;;;;;6.43;1.48;;;25.10;99.90;;;;;;5049943;28;20031;-63
2021/06/21 07:33:31;;;;;;;7.65;1.85;;;24.80;99.90;;;;;;5048268;28;20043;-63
2021/06/21 07:35:57;;;;;;;11.95;1.73;;;24.60;99.90;;;;;;5053027;28;20078;-63
2021/06/21 07:38:23;;;;;;;11.68;1.67;;;24.20;99.90;;;;;;5055375;28;20029;-63
2021/06/21 07:40:48;;;;;;;11.57;2.00;;;23.80;99.90;;;;;;5057292;28;20025;-63
2021/06/21 07:43:14;;;;;;;4.38;1.63;;;23.60;99.90;;;;;;5048892;28;20437;-63
2021/06/21 07:45:41;;;;;;;6.90;1.83;;;23.10;99.90;;;;;;5047907;28;20104;-63
2021/06/21 07:48:07;;;;;;;5.43;1.70;;;22.90;99.90;;;;;;5049285;28;20017;-65
2021/06/21 07:50:32;;;;;;;5.38;1.90;;;22.80;99.90;;;;;;5049025;28;20086;-63
2021/06/21 07:52:58;;;;;;;5.28;1.75;;;22.50;99.90;;;;;;5048705;28;20375;-63
2021/06/21 07:55:27;;;;;;;4.55;2.00;;;22.40;99.90;;;;;;5049486;28;20131;-63
2021/06/21 07:57:53;;;;;;;5.82;1.85;;;22.90;99.90;;;;;;5046494;28;20041;-62
2021/06/21 08:00:22;;;;;;;5.90;1.30;;;23.40;99.90;;;;;;5047776;28;20033;-64
2021/06/21 08:02:47;;;;;;;8.05;2.88;;;24.00;99.90;;;;;;5044853;28;20499;-63
2021/06/21 08:05:13;;;;;;;10.82;1.88;;;24.20;99.90;;;;;;5048483;28;20040;-61
2021/06/21 08:07:39;;;;;;;4.35;1.33;;;24.70;99.90;;;;;;5031803;28;20049;-63
2021/06/21 08:10:05;;;;;;;6.90;1.40;;;25.50;99.90;;;;;;5039995;28;20025;-63
2021/06/21 08:12:31;;;;;;;5.63;1.40;;;25.70;99.90;;;;;;5027020;28;20025;-63
2021/06/21 08:14:57;;;;;;;8.57;1.77;;;26.20;99.90;;;;;;5040924;28;20040;-63
2021/06/21 08:17:22;;;;;;;6.40;2.10;;;26.20;99.90;;;;;;5046522;28;20510;-63
2021/06/21 08:19:50;;;;;;;5.05;1.45;;;26.30;99.90;;;;;;5047805;28;20510;-63
2021/06/21 08:22:17;;;;;;;5.63;1.65;;;25.70;99.90;;;;;;5046113;28;20081;-64
2021/06/21 08:24:45;;;;;;;7.22;1.77;;;25.40;99.90;;;;;;5045425;28;20052;-64
2021/06/21 08:27:10;;;;;;;7.35;1.65;;;25.20;99.90;;;;;;5041039;28;20033;-63
2021/06/21 08:29:36;;;;;;;6.40;1.75;;;24.60;99.90;;;;;;5048256;28;20029;-63
2021/06/21 08:32:03;;;;;;;9.95;1.70;;;23.90;99.90;;;;;;5048546;28;20433;-63
2021/06/21 08:34:28;;;;;;;2.42;1.40;;;23.40;99.90;;;;;;5047577;28;20406;-63
2021/06/21 08:36:54;;;;;;;5.82;1.58;;;23.40;99.90;;;;;;5047396;28;20021;-64
2021/06/21 08:39:19;;;;;;;8.52;1.77;;;23.50;99.90;;;;;;5045152;28;20028;-64
2021/06/21 08:41:45;;;;;;;5.75;1.38;;;23.50;99.90;;;;;;5046761;28;20017;-63
2021/06/21 08:44:10;;;;;;;3.97;1.58;;;23.70;99.90;;;;;;5047462;28;20032;-63
2021/06/21 08:46:37;;;;;;;4.07;1.30;;;23.70;99.90;;;;;;5045448;28;20502;-63
2021/06/21 08:49:04;;;;;;;2.25;1.42;;;23.60;99.90;;;;;;5046544;28;20029;-64
2021/06/21 08:51:30;;;;;;;5.15;1.58;;;23.70;99.90;;;;;;5044967;28;20033;-61
2021/06/21 08:53:55;;;;;;;5.38;1.40;;;23.70;99.90;;;;;;5046043;28;20021;-64
2021/06/21 08:56:21;;;;;;;3.88;1.40;;;23.50;99.90;;;;;;5046053;28;20100;-63
2021/06/21 08:58:46;;;;;;;3.22;1.35;;;23.50;99.90;;;;;;5050667;28;20478;-63
2021/06/21 09:01:12;;;;;;;9.48;1.60;;;23.40;99.90;;;;;;5050701;28;20029;-62
2021/06/21 09:03:38;;;;;;;6.72;1.17;;;23.40;99.90;;;;;;5050218;28;20044;-63
2021/06/21 09:06:16;;;;;;;1.70;1.20;;;23.40;99.90;;;;;;5038719;28;20052;-62
2021/06/21 09:08:53;;;;;;;2.70;1.15;;;23.50;99.90;;;;;;5006273;28;20073;-63
2021/06/21 09:11:19;;;;;;;5.00;1.70;;;24.00;99.90;;;;;;5015874;28;20033;-63
2021/06/21 09:13:44;;;;;;;8.38;1.13;;;24.00;99.90;;;;;;5046042;28;20044;-63
2021/06/21 09:16:10;;;;;;;5.70;1.65;;;23.90;99.90;;;;;;5043685;28;20079;-64
2021/06/21 09:18:38;;;;;;;6.72;2.08;;;23.70;99.90;;;;;;5036350;28;20036;-64
2021/06/21 09:21:29;;;;;;;3.70;2.30;;;23.50;99.90;;;;;;5044567;28;20037;-64
2021/06/21 09:23:57;;;;;;;6.93;2.70;;;23.60;99.90;;;;;;5043746;28;20044;-64
2021/06/21 09:26:28;;;;;;;4.47;2.30;;;23.50;99.90;;;;;;5044588;28;20401;-64
2021/06/21 09:28:54;;;;;;;5.03;2.85;;;23.50;99.90;;;;;;5028391;28;20049;-64
2021/06/21 09:31:21;;;;;;;8.35;4.05;;;23.10;99.90;;;;;;5050575;28;20029;-64
2021/06/21 09:33:47;;;;;;;9.02;7.15;;;22.80;99.90;;;;;;5029162;28;20032;-62
2021/06/21 09:36:36;;;;;;;10.80;7.75;;;22.30;99.90;;;;;;5051294;28;20031;-64
2021/06/21 09:39:16;;;;;;;11.32;10.13;;;22.10;99.90;;;;;;5049622;28;20027;-64
2021/06/21 09:41:41;;;;;;;11.85;10.65;;;22.10;99.90;;;;;;5049230;28;20024;-64
2021/06/21 09:44:07;;;;;;;13.38;11.98;;;21.90;99.90;;;;;;5049405;28;20387;-65
2021/06/21 09:46:32;;;;;;;12.25;11.05;;;21.80;99.90;;;;;;5044278;28;20100;-61
2021/06/21 09:48:58;;;;;;;15.05;13.45;;;21.50;99.90;;;;;;5048681;28;20025;-64
2021/06/21 09:51:28;;;;;;;17.83;13.10;;;21.20;99.90;;;;;;5048791;28;20041;-63
2021/06/21 09:54:10;;;;;;;17.67;12.65;;;21.10;99.90;;;;;;5049958;28;20028;-62
2021/06/21 09:56:54;;;;;;;14.07;11.95;;;21.00;99.90;;;;;;5057302;28;20052;-64
2021/06/21 09:59:29;;;;;;;10.18;9.20;;;21.00;99.90;;;;;;5051657;28;20091;-64
2021/06/21 10:02:12;;;;;;;12.65;9.80;;;20.90;99.90;;;;;;5050267;28;20051;-63
2021/06/21 10:04:40;;;;;;;15.77;9.57;;;20.80;99.90;;;;;;5051063;28;20021;-64
2021/06/21 10:07:25;;;;;;;10.93;9.65;;;20.70;99.90;;;;;;5057263;28;20024;-64
2021/06/21 10:09:55;;;;;;;13.20;9.85;;;20.70;99.90;;;;;;5054077;28;20116;-64
2021/06/21 10:12:21;;;;;;;11.50;10.35;;;20.60;99.90;;;;;;5058093;28;20044;-64
2021/06/21 10:14:46;;;;;;;11.02;9.20;;;20.70;99.90;;;;;;5061235;28;20097;-64
2021/06/21 10:17:12;;;;;;;9.10;8.20;;;20.80;99.90;;;;;;5059845;28;20467;-64
2021/06/21 10:19:38;;;;;;;11.52;7.45;;;21.10;99.90;;;;;;5039448;28;20037;-64
2021/06/21 10:22:06;;;;;;;9.13;6.22;;;20.90;99.90;;;;;;5047143;28;20025;-63
2021/06/21 10:24:32;;;;;;;6.85;5.50;;;20.70;99.90;;;;;;5059578;28;20028;-63
2021/06/21 10:27:00;;;;;;;17.83;5.30;;;20.50;99.90;;;;;;5052283;28;20154;-63
2021/06/21 10:29:26;;;;;;;6.95;5.20;;;20.50;99.90;;;;;;5060735;28;20024;-64
2021/06/21 10:31:52;;;;;;;7.68;4.53;;;20.70;99.90;;;;;;5060926;28;20096;-64
2021/06/21 10:34:19;;;;;;;6.78;4.47;;;20.60;99.90;;;;;;5060641;28;20359;-64
2021/06/21 10:36:53;;;;;;;6.40;4.70;;;20.60;99.90;;;;;;5044900;28;20094;-63
2021/06/21 10:39:19;;;;;;;9.57;4.05;;;20.10;99.90;;;;;;5046538;28;20635;-64
2021/06/21 10:42:04;;;;;;;6.40;3.30;;;19.90;99.90;;;;;;5042625;28;20394;-63
2021/06/21 10:44:41;;;;;;;5.38;2.85;;;20.10;99.90;;;;;;5040266;28;20024;-64
2021/06/21 10:47:27;;;;;;;3.38;2.60;;;20.00;99.90;;;;;;5043014;28;20099;-63
2021/06/21 10:50:17;;;;;;;3.03;2.40;;;19.60;99.90;;;;;;5052888;28;20044;-62
2021/06/21 10:52:47;;;;;;;2.22;1.88;;;19.50;99.90;;;;;;5052052;28;20124;-63
2021/06/21 10:55:22;;;;;;;2.00;1.77;;;19.60;99.90;;;;;;5049892;28;20070;-64
2021/06/21 10:57:55;;;;;;;2.22;1.60;;;19.90;99.90;;;;;;5051613;28;20025;-64
2021/06/21 11:00:42;;;;;;;4.22;1.63;;;20.30;99.90;;;;;;5047331;28;20037;-64
2021/06/21 11:03:27;;;;;;;3.03;2.33;;;20.30;99.90;;;;;;5045745;28;20067;-64
2021/06/21 11:05:53;;;;;;;1.75;1.40;;;20.60;99.90;;;;;;5060152;28;20037;-64
2021/06/21 11:08:20;;;;;;;2.58;1.60;;;20.70;99.90;;;;;;5052166;28;20021;-63
2021/06/21 11:10:48;;;;;;;1.48;1.30;;;20.70;99.90;;;;;;5056786;28;20037;-64
2021/06/21 11:13:37;;;;;;;1.95;1.80;;;20.40;99.90;;;;;;5046755;28;20021;-64
2021/06/21 11:16:24;;;;;;;5.20;2.30;;;20.30;99.90;;;;;;5052962;28;20047;-61
2021/06/21 11:19:21;;;;;;;1.98;1.60;;;20.10;99.90;;;;;;5028554;28;20041;-63
2021/06/21 11:21:56;;;;;;;2.17;1.98;;;19.90;99.90;;;;;;5048037;28;20027;-64
2021/06/21 11:24:43;;;;;;;1.75;1.30;;;19.80;99.90;;;;;;5040663;28;20028;-64
2021/06/21 11:27:14;;;;;;;1.63;1.38;;;19.80;99.90;;;;;;5033095;28;21377;-62
2021/06/21 11:29:53;;;;;;;2.38;1.70;;;19.80;99.90;;;;;;5021473;28;20666;-64
2021/06/21 11:32:20;;;;;;;1.95;1.70;;;19.60;99.90;;;;;;5041240;28;20021;-63
2021/06/21 11:34:49;;;;;;;2.10;1.90;;;19.80;99.90;;;;;;5031175;28;20032;-63
2021/06/21 11:37:41;;;;;;;2.25;1.75;;;19.80;99.90;;;;;;5043811;28;20395;-63
2021/06/21 11:40:16;;;;;;;2.53;2.25;;;19.90;99.90;;;;;;5037608;28;20035;-63
2021/06/21 11:42:57;;;;;;;7.45;2.22;;;20.10;99.90;;;;;;5053313;28;20039;-61
2021/06/21 11:45:44;;;;;;;4.00;2.70;;;20.10;99.90;;;;;;5046354;28;20108;-63
2021/06/21 11:48:11;;;;;;;4.13;3.72;;;20.00;99.90;;;;;;5036333;28;20525;-63
2021/06/21 11:50:37;;;;;;;4.25;3.70;;;19.70;99.90;;;;;;5048004;28;20041;-63
2021/06/21 11:53:07;;;;;;;4.25;3.75;;;19.70;99.90;;;;;;5038910;28;20452;-64
2021/06/21 11:55:35;;;;;;;4.95;2.50;;;19.90;99.90;;;;;;5045328;28;20020;-63
2021/06/21 11:58:01;;;;;;;2.85;2.30;;;20.40;99.90;;;;;;5044321;28;20025;-64
2021/06/21 12:00:36;;;;;;;2.90;2.60;;;20.90;99.90;;;;;;5033806;28;20032;-64
2021/06/21 12:03:07;;;;;;;3.17;2.30;;;21.30;99.90;;;;;;5043614;28;20036;-63
2021/06/21 12:05:32;;;;;;;3.40;2.30;;;21.10;99.90;;;;;;5048413;28;20032;-64
2021/06/21 12:07:58;;;;;;;2.33;2.10;;;20.90;99.90;;;;;;5047312;28;20898;-63
2021/06/21 12:10:24;;;;;;;3.63;2.10;;;21.00;99.90;;;;;;5045211;28;20816;-64
2021/06/21 12:12:53;;;;;;;2.70;2.20;;;21.10;99.90;;;;;;5041176;28;20138;-62
2021/06/21 12:15:37;;;;;;;4.90;2.65;;;21.30;99.90;;;;;;5047979;28;20095;-62
2021/06/21 12:18:03;;;;;;;2.63;2.33;;;21.80;99.90;;;;;;5047802;28;20159;-64
2021/06/21 12:20:32;;;;;;;3.10;2.38;;;21.90;99.90;;;;;;5049046;28;20111;-61
2021/06/21 12:23:02;;;;;;;2.38;2.17;;;21.70;99.90;;;;;;5050167;28;20096;-63
2021/06/21 12:25:42;;;;;;;4.10;2.25;;;21.60;99.90;;;;;;5057143;28;20024;-64
2021/06/21 12:28:18;;;;;;;2.08;1.88;;;21.70;99.90;;;;;;5035546;28;20048;-63
2021/06/21 12:30:51;;;;;;;2.25;2.05;;;21.70;99.90;;;;;;5041968;28;20028;-62
2021/06/21 12:33:31;;;;;;;2.60;1.90;;;22.20;99.90;;;;;;5043264;28;20704;-63
2021/06/21 12:36:11;;;;;;;4.40;2.45;;;21.90;99.90;;;;;;5038419;28;20037;-63
2021/06/21 12:38:50;;;;;;;2.45;2.25;;;21.70;99.90;;;;;;5041567;28;20036;-62
2021/06/21 12:41:19;;;;;;;2.53;2.13;;;21.70;99.90;;;;;;5047935;28;20032;-62
2021/06/21 12:44:04;;;;;;;2.72;2.47;;;21.70;99.90;;;;;;5049791;28;20037;-62
2021/06/21 12:46:35;;;;;;;3.25;2.35;;;22.00;99.90;;;;;;5040712;28;20454;-63
2021/06/21 12:49:06;;;;;;;2.30;2.10;;;21.70;99.90;;;;;;5049505;28;20055;-62
2021/06/21 12:51:33;;;;;;;3.65;2.38;;;21.30;99.90;;;;;;5059386;28;20024;-63
2021/06/21 12:53:59;;;;;;;3.33;3.03;;;21.10;99.90;;;;;;5035991;28;20032;-63